Hauptseite
METAR-TAF:

METAR-TAF

Flughäfen :

Flughafen Chuuk

Weno, Mikronesien

Breite: 07-28N, Länge: 151-51E, Höhe: 3 m

Beobachtung

Neuester Wetterbericht von vor 50 Minuten, um 06:52 UTC
Wind 5 kt aus unterschiedlichen Richtungen
Temperatur 30°C
Luftfeuchtigkeit 89%
Luftdruck 1007 hPa
Sichtweite: 24.1 km
Leicht bewölkt in der Höhe von 1400 ft
Aufgelockert bewölkt in der Höhe von 12000 ft
Geschlossene Wolkendecke in der Höhe von 28000 ft

METAR: PTKK 170652Z VRB05KT 15SM FEW014 SCT120 OVC280 30/28 A2974 RMK SLP072 T03000277

Zeit: 17:42 (07:42 UTC)

Prognose

Neuester Wetterbericht von vor 2 Stunden und 19 Minuten, um 05:23 UTC
Gültige Prognose vom 17 um 06 UTC bis 18 um 06 UTC
Wind 5 kt aus unterschiedlichen Richtungen
Sichtweite: 10 km
Leicht bewölkt in der Höhe von 1400 ft
Durchbrochene Bewölkung in der Höhe von 12000 ft
Schauer in der Nähe

TAF: PTKK 170523Z 1706/1806 VRB05KT P6SM VCSH FEW014 BKN120

Wetterbeobachtungen und Prognosen von mehr als 4000 Flughäfen (METAR und TAF Bericht).

Die verfügbaren Stationen werden durch gelbe und rote Markierungen auf der Karte dargestellt.

Führen Sie die Maus auf sie, um den Namen der Station zu sehen.

Darauf klicken, um die Beobachtung von Wetterbeobachtungen und Prognosen zu sehen.

Um die Karte zu ändern : klicken Sie auf den grünen Tasten mit einem schwarzen Kreuz Zum Vergrößern, auf den grünen Button mit einem Gedankenstrich zu verkleinern, oder auf die grünen Pfeile für benachbarte Karten.


METAR-TAF: